RYR4PP LKPR-EGPH
Flight info
| Callsign | RYR4PP |
|---|---|
| Flight time | 2h 8m |
| Altitude | 38000 |
| Route | BALTU DCT DONAD DCT VARIK L602 SODRO DCT KATCE DCT ANDIK DCT MIMVA L602 NALAX L46 ESHIN N110 ERKIT DCT AGPED |
| Aircraft | B38M/M-SDE1FGHILORVWXY/HB1 |
Departure
| Time | 2026-04-25 17:59 |
|---|---|
| Airport | Václav Havel Airport Prague (LKPR) |
Arrival
| Time | 2026-04-25 20:08 |
|---|---|
| Airport | Edinburgh Airport (EGPH) |
| Time | Latitude | Longitude | Altitude | Speed | Heading |
|---|---|---|---|---|---|
| 2026-04-25 17:38 | 50.10726 | 14.25951 | 1181 ft | 0 kts | 83° |
| 2026-04-25 17:48 | 50.10728 | 14.25974 | 1177 ft | 3 kts | 82° |
| 2026-04-25 17:48 | 50.10722 | 14.26024 | 1181 ft | 7 kts | 116° |
| 2026-04-25 17:48 | 50.10693 | 14.26093 | 1182 ft | 8 kts | 122° |
| 2026-04-25 17:49 | 50.10662 | 14.26106 | 1183 ft | 5 kts | 213° |
| 2026-04-25 17:49 | 50.10611 | 14.26070 | 1186 ft | 11 kts | 179° |
| 2026-04-25 17:49 | 50.10557 | 14.26151 | 1189 ft | 14 kts | 124° |
| 2026-04-25 17:49 | 50.10503 | 14.26322 | 1190 ft | 19 kts | 124° |
| 2026-04-25 17:50 | 50.10443 | 14.26456 | 1193 ft | 13 kts | 125° |
| 2026-04-25 17:50 | 50.10393 | 14.26551 | 1194 ft | 10 kts | 128° |
| 2026-04-25 17:50 | 50.10351 | 14.26611 | 1196 ft | 7 kts | 171° |
| 2026-04-25 17:50 | 50.10340 | 14.26608 | 1197 ft | 5 kts | 202° |
| 2026-04-25 17:51 | 50.10259 | 14.26525 | 1200 ft | 13 kts | 206° |
| 2026-04-25 17:51 | 50.10216 | 14.26565 | 1202 ft | 7 kts | 127° |
| 2026-04-25 17:51 | 50.10183 | 14.26634 | 1204 ft | 11 kts | 126° |
| 2026-04-25 17:51 | 50.10120 | 14.26767 | 1208 ft | 20 kts | 127° |
| 2026-04-25 17:52 | 50.10034 | 14.26943 | 1211 ft | 21 kts | 126° |
| 2026-04-25 17:52 | 50.09975 | 14.27064 | 1212 ft | 21 kts | 127° |
| 2026-04-25 17:52 | 50.09855 | 14.27310 | 1213 ft | 21 kts | 132° |
| 2026-04-25 17:52 | 50.09748 | 14.27475 | 1216 ft | 22 kts | 135° |
| 2026-04-25 17:53 | 50.09642 | 14.27639 | 1222 ft | 18 kts | 135° |
| 2026-04-25 17:53 | 50.09559 | 14.27768 | 1227 ft | 17 kts | 135° |
| 2026-04-25 17:53 | 50.09481 | 14.27885 | 1232 ft | 14 kts | 135° |
| 2026-04-25 17:53 | 50.09409 | 14.27996 | 1232 ft | 17 kts | 135° |
| 2026-04-25 17:54 | 50.09310 | 14.28147 | 1239 ft | 23 kts | 135° |
| 2026-04-25 17:54 | 50.09198 | 14.28286 | 1242 ft | 15 kts | 172° |
| 2026-04-25 17:54 | 50.09147 | 14.28262 | 1242 ft | 0 kts | 215° |
| 2026-04-25 17:56 | 50.09143 | 14.28257 | 1242 ft | 3 kts | 215° |
| 2026-04-25 17:56 | 50.09106 | 14.28194 | 1242 ft | 14 kts | 243° |
| 2026-04-25 17:57 | 50.09128 | 14.27993 | 1239 ft | 25 kts | 308° |
| 2026-04-25 17:57 | 50.09158 | 14.27929 | 1239 ft | 0 kts | 307° |
| 2026-04-25 17:58 | 50.09161 | 14.27923 | 1237 ft | 5 kts | 307° |
| 2026-04-25 17:58 | 50.09346 | 14.27546 | 1230 ft | 85 kts | 307° |
| 2026-04-25 17:58 | 50.09859 | 14.26486 | 1206 ft | 156 kts | 307° |
| 2026-04-25 17:59 | 50.10577 | 14.25044 | 1357 ft | 186 kts | 308° |
| 2026-04-25 17:59 | 50.11422 | 14.23364 | 2110 ft | 204 kts | 306° |
| 2026-04-25 17:59 | 50.12275 | 14.21562 | 3123 ft | 207 kts | 305° |
| 2026-04-25 17:59 | 50.13125 | 14.19767 | 4136 ft | 204 kts | 305° |
| 2026-04-25 18:00 | 50.13953 | 14.18030 | 5128 ft | 200 kts | 306° |
| 2026-04-25 18:00 | 50.14786 | 14.16289 | 6103 ft | 196 kts | 306° |
| 2026-04-25 18:00 | 50.15596 | 14.14599 | 6993 ft | 193 kts | 306° |
| 2026-04-25 18:00 | 50.16417 | 14.12887 | 7614 ft | 205 kts | 306° |
| 2026-04-25 18:01 | 50.17318 | 14.11009 | 7947 ft | 233 kts | 306° |
| 2026-04-25 18:01 | 50.18325 | 14.08912 | 8514 ft | 250 kts | 306° |
| 2026-04-25 18:01 | 50.19394 | 14.06684 | 9251 ft | 260 kts | 306° |
| 2026-04-25 18:01 | 50.20478 | 14.04422 | 10211 ft | 263 kts | 306° |
| 2026-04-25 18:02 | 50.21605 | 14.02060 | 10715 ft | 281 kts | 304° |
| 2026-04-25 18:02 | 50.22419 | 13.99206 | 11135 ft | 298 kts | 281° |
| 2026-04-25 18:02 | 50.22355 | 13.95908 | 11742 ft | 314 kts | 259° |
| 2026-04-25 18:02 | 50.21673 | 13.92640 | 12598 ft | 318 kts | 256° |
| 2026-04-25 18:03 | 50.20993 | 13.89328 | 13394 ft | 322 kts | 256° |
| 2026-04-25 18:03 | 50.20301 | 13.85985 | 14135 ft | 326 kts | 256° |
| 2026-04-25 18:03 | 50.19592 | 13.82595 | 14794 ft | 330 kts | 256° |
| 2026-04-25 18:03 | 50.18872 | 13.79172 | 15500 ft | 333 kts | 256° |
| 2026-04-25 18:04 | 50.18143 | 13.75715 | 16157 ft | 338 kts | 256° |
| 2026-04-25 18:04 | 50.17404 | 13.72219 | 16831 ft | 341 kts | 256° |
| 2026-04-25 18:04 | 50.16656 | 13.68689 | 17479 ft | 345 kts | 256° |
| 2026-04-25 18:04 | 50.15899 | 13.65122 | 18128 ft | 348 kts | 256° |
| 2026-04-25 18:05 | 50.15133 | 13.61523 | 18679 ft | 352 kts | 256° |
| 2026-04-25 18:05 | 50.14359 | 13.57888 | 19242 ft | 354 kts | 256° |
| 2026-04-25 18:05 | 50.13578 | 13.54230 | 19798 ft | 357 kts | 256° |
| 2026-04-25 18:05 | 50.12790 | 13.50543 | 20339 ft | 360 kts | 256° |
| 2026-04-25 18:06 | 50.11996 | 13.46835 | 20889 ft | 362 kts | 256° |
| 2026-04-25 18:06 | 50.11194 | 13.43100 | 21432 ft | 365 kts | 256° |
| 2026-04-25 18:06 | 50.10385 | 13.39334 | 21957 ft | 368 kts | 256° |
| 2026-04-25 18:06 | 50.09568 | 13.35541 | 22436 ft | 372 kts | 255° |
| 2026-04-25 18:07 | 50.08934 | 13.31643 | 22856 ft | 371 kts | 269° |
| 2026-04-25 18:07 | 50.08873 | 13.27655 | 23494 ft | 369 kts | 270° |
| 2026-04-25 18:07 | 50.08746 | 13.23628 | 23793 ft | 376 kts | 270° |
| 2026-04-25 18:07 | 50.08623 | 13.19564 | 24271 ft | 376 kts | 270° |
| 2026-04-25 18:08 | 50.08508 | 13.15480 | 24651 ft | 380 kts | 270° |
| 2026-04-25 18:08 | 50.08395 | 13.11365 | 25084 ft | 381 kts | 271° |
| 2026-04-25 18:08 | 50.08282 | 13.07234 | 25489 ft | 383 kts | 271° |
| 2026-04-25 18:08 | 50.08189 | 13.03073 | 25876 ft | 385 kts | 274° |
| 2026-04-25 18:09 | 50.08657 | 12.99012 | 26233 ft | 380 kts | 293° |
| 2026-04-25 18:09 | 50.09812 | 12.95325 | 26695 ft | 380 kts | 298° |
| 2026-04-25 18:09 | 50.11022 | 12.91634 | 26921 ft | 386 kts | 298° |
| 2026-04-25 18:09 | 50.11438 | 12.90382 | 27047 ft | 386 kts | 298° |
| 2026-04-25 18:10 | 50.13511 | 12.84209 | 27658 ft | 390 kts | 299° |
| 2026-04-25 18:10 | 50.14782 | 12.80464 | 28044 ft | 391 kts | 299° |
| 2026-04-25 18:10 | 50.16059 | 12.76711 | 28414 ft | 393 kts | 299° |
| 2026-04-25 18:10 | 50.17344 | 12.72936 | 28759 ft | 395 kts | 299° |
| 2026-04-25 18:11 | 50.18632 | 12.69146 | 29146 ft | 397 kts | 299° |
| 2026-04-25 18:11 | 50.19924 | 12.65340 | 29576 ft | 397 kts | 299° |
| 2026-04-25 18:11 | 50.21217 | 12.61528 | 29904 ft | 399 kts | 299° |
| 2026-04-25 18:11 | 50.22517 | 12.57687 | 30210 ft | 401 kts | 299° |
| 2026-04-25 18:12 | 50.23803 | 12.53882 | 30484 ft | 402 kts | 299° |
| 2026-04-25 18:12 | 50.25109 | 12.50013 | 30757 ft | 404 kts | 299° |
| 2026-04-25 18:12 | 50.26420 | 12.46121 | 30990 ft | 406 kts | 299° |
| 2026-04-25 18:12 | 50.27740 | 12.42199 | 31218 ft | 409 kts | 299° |
| 2026-04-25 18:13 | 50.29046 | 12.38258 | 31545 ft | 409 kts | 297° |
| 2026-04-25 18:13 | 50.30238 | 12.34224 | 31929 ft | 408 kts | 296° |
| 2026-04-25 18:13 | 50.31431 | 12.30199 | 32309 ft | 407 kts | 296° |
| 2026-04-25 18:14 | 50.33818 | 12.22208 | 33038 ft | 404 kts | 296° |
| 2026-04-25 18:14 | 50.35064 | 12.18267 | 33393 ft | 403 kts | 298° |
| 2026-04-25 18:14 | 50.36333 | 12.14366 | 33742 ft | 402 kts | 298° |
| 2026-04-25 18:14 | 50.37594 | 12.10463 | 34083 ft | 401 kts | 298° |
| 2026-04-25 18:15 | 50.38847 | 12.06569 | 34348 ft | 400 kts | 298° |
| 2026-04-25 18:15 | 50.40098 | 12.02670 | 34590 ft | 400 kts | 298° |
| 2026-04-25 18:15 | 50.41347 | 11.98772 | 34840 ft | 400 kts | 298° |
| 2026-04-25 18:15 | 50.42593 | 11.94876 | 35111 ft | 399 kts | 298° |
| 2026-04-25 18:16 | 50.43836 | 11.90982 | 35364 ft | 399 kts | 298° |
| 2026-04-25 18:16 | 50.45075 | 11.87097 | 35615 ft | 398 kts | 297° |
| 2026-04-25 18:16 | 50.48062 | 11.79873 | 36131 ft | 393 kts | 312° |
| 2026-04-25 18:17 | 50.49866 | 11.76646 | 36327 ft | 394 kts | 309° |
| 2026-04-25 18:17 | 50.51633 | 11.73342 | 36477 ft | 395 kts | 310° |
| 2026-04-25 18:17 | 50.53408 | 11.70054 | 36696 ft | 395 kts | 310° |
| 2026-04-25 18:17 | 50.55192 | 11.66766 | 36868 ft | 395 kts | 310° |
| 2026-04-25 18:18 | 50.56973 | 11.63489 | 37027 ft | 395 kts | 310° |
| 2026-04-25 18:18 | 50.58758 | 11.60204 | 37219 ft | 395 kts | 310° |
| 2026-04-25 18:18 | 50.60540 | 11.56921 | 37415 ft | 394 kts | 310° |
| 2026-04-25 18:18 | 50.62319 | 11.53639 | 37592 ft | 394 kts | 310° |
| 2026-04-25 18:19 | 50.64096 | 11.50356 | 37762 ft | 393 kts | 310° |
| 2026-04-25 18:19 | 50.65871 | 11.47075 | 37939 ft | 393 kts | 310° |
| 2026-04-25 18:19 | 50.67640 | 11.43799 | 38076 ft | 393 kts | 309° |
| 2026-04-25 18:20 | 50.71178 | 11.37236 | 38060 ft | 391 kts | 309° |
| 2026-04-25 18:20 | 50.74701 | 11.30683 | 38078 ft | 392 kts | 309° |
| 2026-04-25 18:21 | 50.78221 | 11.24121 | 38088 ft | 393 kts | 309° |
| 2026-04-25 18:21 | 50.81758 | 11.17510 | 38084 ft | 393 kts | 309° |
| 2026-04-25 18:22 | 50.85273 | 11.10922 | 38084 ft | 392 kts | 309° |
| 2026-04-25 18:22 | 50.88764 | 11.04362 | 38073 ft | 392 kts | 309° |
| 2026-04-25 18:23 | 50.92275 | 10.97749 | 38074 ft | 392 kts | 309° |
| 2026-04-25 18:23 | 50.95781 | 10.91127 | 38073 ft | 392 kts | 309° |
| 2026-04-25 18:24 | 50.99284 | 10.84493 | 38074 ft | 392 kts | 309° |
| 2026-04-25 18:24 | 51.02787 | 10.77844 | 38075 ft | 392 kts | 309° |
| 2026-04-25 18:25 | 51.06288 | 10.71180 | 38087 ft | 393 kts | 309° |
| 2026-04-25 18:25 | 51.09782 | 10.64513 | 38118 ft | 392 kts | 309° |
| 2026-04-25 18:26 | 51.13257 | 10.57863 | 38086 ft | 389 kts | 309° |
| 2026-04-25 18:26 | 51.16723 | 10.51216 | 38090 ft | 391 kts | 309° |
| 2026-04-25 18:27 | 51.20173 | 10.44529 | 38092 ft | 391 kts | 306° |
| 2026-04-25 18:27 | 51.21455 | 10.40718 | 37962 ft | 391 kts | 288° |
| 2026-04-25 18:27 | 51.21880 | 10.36457 | 38034 ft | 391 kts | 272° |
| 2026-04-25 18:27 | 51.21785 | 10.32125 | 38165 ft | 392 kts | 272° |
| 2026-04-25 18:28 | 51.21705 | 10.27750 | 38066 ft | 396 kts | 272° |
| 2026-04-25 18:28 | 51.21554 | 10.18944 | 38105 ft | 400 kts | 272° |
| 2026-04-25 18:29 | 51.21318 | 10.05636 | 38112 ft | 400 kts | 272° |
| 2026-04-25 18:30 | 51.20991 | 9.88141 | 38097 ft | 402 kts | 271° |
| 2026-04-25 18:30 | 51.20913 | 9.79499 | 38085 ft | 401 kts | 280° |
| 2026-04-25 18:31 | 51.21604 | 9.75274 | 37942 ft | 390 kts | 297° |
| 2026-04-25 18:31 | 51.23073 | 9.71779 | 38139 ft | 384 kts | 312° |
| 2026-04-25 18:31 | 51.26847 | 9.65646 | 38058 ft | 391 kts | 314° |
| 2026-04-25 18:32 | 51.30702 | 9.59500 | 38105 ft | 394 kts | 314° |
| 2026-04-25 18:32 | 51.34590 | 9.53298 | 38103 ft | 397 kts | 314° |
| 2026-04-25 18:33 | 51.38530 | 9.47086 | 38110 ft | 397 kts | 314° |
| 2026-04-25 18:33 | 51.42449 | 9.40845 | 38108 ft | 397 kts | 314° |
| 2026-04-25 18:34 | 51.45708 | 9.35593 | 38118 ft | 396 kts | 314° |
| 2026-04-25 18:34 | 51.49554 | 9.29313 | 38103 ft | 394 kts | 311° |
| 2026-04-25 18:35 | 51.51124 | 9.25728 | 38036 ft | 392 kts | 297° |
| 2026-04-25 18:35 | 51.52291 | 9.21802 | 38264 ft | 388 kts | 296° |
| 2026-04-25 18:35 | 51.53411 | 9.17836 | 38145 ft | 393 kts | 295° |
| 2026-04-25 18:35 | 51.54538 | 9.13829 | 38070 ft | 393 kts | 295° |
| 2026-04-25 18:36 | 51.56790 | 9.05806 | 38109 ft | 396 kts | 295° |
| 2026-04-25 18:36 | 51.59049 | 8.97748 | 38134 ft | 396 kts | 295° |
| 2026-04-25 18:37 | 51.61306 | 8.89686 | 38143 ft | 395 kts | 295° |
| 2026-04-25 18:37 | 51.63560 | 8.81623 | 38136 ft | 395 kts | 295° |
| 2026-04-25 18:38 | 51.65801 | 8.73590 | 38133 ft | 395 kts | 295° |
| 2026-04-25 18:38 | 51.68055 | 8.65532 | 38131 ft | 396 kts | 295° |
| 2026-04-25 18:39 | 51.70338 | 8.57389 | 38126 ft | 396 kts | 295° |
| 2026-04-25 18:39 | 51.72588 | 8.49349 | 38125 ft | 396 kts | 295° |
| 2026-04-25 18:40 | 51.74866 | 8.41199 | 38148 ft | 396 kts | 295° |
| 2026-04-25 18:40 | 51.77103 | 8.33139 | 38147 ft | 395 kts | 295° |
| 2026-04-25 18:41 | 51.79352 | 8.25016 | 38101 ft | 396 kts | 295° |
| 2026-04-25 18:41 | 51.81618 | 8.16881 | 38137 ft | 399 kts | 295° |
| 2026-04-25 18:42 | 51.83525 | 8.10037 | 38133 ft | 399 kts | 295° |
| 2026-04-25 18:42 | 51.86169 | 8.00527 | 38138 ft | 399 kts | 295° |
| 2026-04-25 18:43 | 51.88440 | 7.92347 | 38144 ft | 399 kts | 295° |
| 2026-04-25 18:43 | 51.90709 | 7.84156 | 38141 ft | 399 kts | 295° |
| 2026-04-25 18:44 | 51.92989 | 7.75954 | 38148 ft | 400 kts | 295° |
| 2026-04-25 18:44 | 51.95292 | 7.67711 | 38147 ft | 402 kts | 295° |
| 2026-04-25 18:45 | 51.97595 | 7.59462 | 38157 ft | 401 kts | 295° |
| 2026-04-25 18:45 | 51.99896 | 7.51208 | 38156 ft | 401 kts | 295° |
| 2026-04-25 18:46 | 52.02194 | 7.42949 | 38153 ft | 401 kts | 295° |
| 2026-04-25 18:46 | 52.04489 | 7.34684 | 38142 ft | 402 kts | 295° |
| 2026-04-25 18:47 | 52.06809 | 7.26388 | 38174 ft | 404 kts | 295° |
| 2026-04-25 18:47 | 52.09111 | 7.18075 | 38160 ft | 403 kts | 295° |
| 2026-04-25 18:48 | 52.11408 | 7.09762 | 38160 ft | 403 kts | 295° |
| 2026-04-25 18:48 | 52.13702 | 7.01442 | 38164 ft | 403 kts | 295° |
| 2026-04-25 18:49 | 52.15994 | 6.93117 | 38166 ft | 403 kts | 295° |
| 2026-04-25 18:49 | 52.18295 | 6.84783 | 38173 ft | 404 kts | 295° |
| 2026-04-25 18:50 | 52.20624 | 6.76401 | 38167 ft | 407 kts | 295° |
| 2026-04-25 18:50 | 52.22953 | 6.68006 | 38175 ft | 406 kts | 295° |
| 2026-04-25 18:51 | 52.24886 | 6.61025 | 38178 ft | 406 kts | 295° |
| 2026-04-25 18:51 | 52.27587 | 6.51259 | 38181 ft | 406 kts | 295° |
| 2026-04-25 18:52 | 52.29908 | 6.42849 | 38165 ft | 406 kts | 295° |
| 2026-04-25 18:52 | 52.32252 | 6.34417 | 38194 ft | 409 kts | 295° |
| 2026-04-25 18:53 | 52.34615 | 6.25938 | 38195 ft | 410 kts | 295° |
| 2026-04-25 18:53 | 52.36972 | 6.17457 | 38206 ft | 409 kts | 295° |
| 2026-04-25 18:54 | 52.40418 | 6.04706 | 38188 ft | 408 kts | 294° |
| 2026-04-25 18:55 | 52.42641 | 5.96151 | 38194 ft | 408 kts | 294° |
| 2026-04-25 18:55 | 52.44890 | 5.87567 | 38207 ft | 412 kts | 294° |
| 2026-04-25 18:56 | 52.47157 | 5.78931 | 38198 ft | 412 kts | 294° |
| 2026-04-25 18:56 | 52.49421 | 5.70297 | 38200 ft | 412 kts | 294° |
| 2026-04-25 18:57 | 52.51682 | 5.61656 | 38212 ft | 412 kts | 294° |
| 2026-04-25 18:57 | 52.53940 | 5.53008 | 38212 ft | 412 kts | 294° |
| 2026-04-25 18:58 | 52.56186 | 5.44405 | 38204 ft | 413 kts | 293° |
| 2026-04-25 18:58 | 52.59617 | 5.31328 | 38223 ft | 415 kts | 293° |
| 2026-04-25 18:59 | 52.64189 | 5.13853 | 38222 ft | 416 kts | 293° |
| 2026-04-25 19:00 | 52.67586 | 5.00730 | 38224 ft | 413 kts | 293° |
| 2026-04-25 19:01 | 52.70962 | 4.87608 | 38212 ft | 417 kts | 293° |
| 2026-04-25 19:01 | 52.73228 | 4.78800 | 38227 ft | 418 kts | 293° |
| 2026-04-25 19:02 | 52.76624 | 4.65572 | 38223 ft | 417 kts | 293° |
| 2026-04-25 19:03 | 52.79251 | 4.55309 | 38231 ft | 417 kts | 293° |
| 2026-04-25 19:03 | 52.82270 | 4.43483 | 38237 ft | 417 kts | 293° |
| 2026-04-25 19:04 | 52.85649 | 4.30209 | 38238 ft | 417 kts | 293° |
| 2026-04-25 19:05 | 52.90128 | 4.12541 | 38246 ft | 417 kts | 293° |
| 2026-04-25 19:06 | 52.92367 | 4.03676 | 38240 ft | 417 kts | 293° |
| 2026-04-25 19:06 | 52.95756 | 3.90299 | 38246 ft | 420 kts | 293° |
| 2026-04-25 19:07 | 53.00036 | 3.77736 | 38292 ft | 419 kts | 305° |
| 2026-04-25 19:08 | 53.05051 | 3.65841 | 38256 ft | 420 kts | 304° |
| 2026-04-25 19:09 | 53.10523 | 3.52454 | 38248 ft | 420 kts | 304° |
| 2026-04-25 19:10 | 53.16572 | 3.37640 | 38240 ft | 423 kts | 304° |
| 2026-04-25 19:10 | 53.19873 | 3.29533 | 38240 ft | 423 kts | 304° |
| 2026-04-25 19:11 | 53.23162 | 3.21422 | 38213 ft | 421 kts | 304° |
| 2026-04-25 19:11 | 53.26427 | 3.13330 | 38215 ft | 420 kts | 304° |
| 2026-04-25 19:12 | 53.29693 | 3.05220 | 38243 ft | 421 kts | 304° |
| 2026-04-25 19:12 | 53.32978 | 2.97076 | 38254 ft | 424 kts | 304° |
| 2026-04-25 19:13 | 53.36275 | 2.88892 | 38258 ft | 424 kts | 304° |
| 2026-04-25 19:13 | 53.39567 | 2.80698 | 38258 ft | 424 kts | 304° |
| 2026-04-25 19:14 | 53.42856 | 2.72498 | 38258 ft | 424 kts | 304° |
| 2026-04-25 19:14 | 53.46142 | 2.64284 | 38261 ft | 424 kts | 304° |
| 2026-04-25 19:15 | 53.49406 | 2.56110 | 38257 ft | 424 kts | 304° |
| 2026-04-25 19:15 | 53.52709 | 2.47868 | 38267 ft | 426 kts | 305° |
| 2026-04-25 19:16 | 53.56675 | 2.40515 | 38366 ft | 423 kts | 315° |
| 2026-04-25 19:16 | 53.60880 | 2.33512 | 38225 ft | 425 kts | 315° |
| 2026-04-25 19:17 | 53.65081 | 2.26514 | 38272 ft | 426 kts | 315° |
| 2026-04-25 19:17 | 53.69251 | 2.19422 | 38259 ft | 426 kts | 309° |
| 2026-04-25 19:18 | 53.72590 | 2.11216 | 38356 ft | 424 kts | 302° |
| 2026-04-25 19:18 | 53.74177 | 2.07000 | 38236 ft | 425 kts | 302° |
| 2026-04-25 19:18 | 53.75763 | 2.02789 | 38263 ft | 424 kts | 302° |
| 2026-04-25 19:19 | 53.78949 | 1.94345 | 38269 ft | 427 kts | 302° |
| 2026-04-25 19:19 | 53.82120 | 1.85925 | 38285 ft | 428 kts | 302° |
| 2026-04-25 19:20 | 53.85308 | 1.77447 | 38277 ft | 426 kts | 302° |
| 2026-04-25 19:20 | 53.88484 | 1.68979 | 38279 ft | 426 kts | 302° |
| 2026-04-25 19:21 | 53.91665 | 1.60476 | 38284 ft | 427 kts | 302° |
| 2026-04-25 19:21 | 53.96326 | 1.47614 | 38278 ft | 426 kts | 301° |
| 2026-04-25 19:22 | 53.98909 | 1.40494 | 38296 ft | 426 kts | 301° |
| 2026-04-25 19:23 | 54.03557 | 1.27611 | 38288 ft | 426 kts | 301° |
| 2026-04-25 19:23 | 54.08201 | 1.14693 | 38287 ft | 427 kts | 301° |
| 2026-04-25 19:24 | 54.11294 | 1.06056 | 38284 ft | 428 kts | 301° |
| 2026-04-25 19:25 | 54.17529 | 0.88722 | 38291 ft | 429 kts | 301° |
| 2026-04-25 19:25 | 54.20653 | 0.80028 | 38287 ft | 429 kts | 301° |
| 2026-04-25 19:26 | 54.23768 | 0.71342 | 38295 ft | 429 kts | 301° |
| 2026-04-25 19:26 | 54.26875 | 0.62656 | 38292 ft | 428 kts | 301° |
| 2026-04-25 19:27 | 54.29453 | 0.55414 | 38297 ft | 429 kts | 301° |
| 2026-04-25 19:27 | 54.33092 | 0.45210 | 38293 ft | 430 kts | 301° |
| 2026-04-25 19:28 | 54.36221 | 0.36453 | 38293 ft | 431 kts | 301° |
| 2026-04-25 19:28 | 54.39346 | 0.27690 | 38291 ft | 431 kts | 301° |
| 2026-04-25 19:29 | 54.42468 | 0.18917 | 38297 ft | 431 kts | 301° |
| 2026-04-25 19:29 | 54.45586 | 0.10134 | 38297 ft | 431 kts | 301° |
| 2026-04-25 19:30 | 54.48701 | 0.01341 | 38297 ft | 431 kts | 301° |
| 2026-04-25 19:30 | 54.51808 | -0.07472 | 38302 ft | 431 kts | 300° |
| 2026-04-25 19:31 | 54.54850 | -0.16373 | 38295 ft | 431 kts | 300° |
| 2026-04-25 19:31 | 54.57889 | -0.25295 | 38296 ft | 432 kts | 300° |
| 2026-04-25 19:32 | 54.60903 | -0.34162 | 38298 ft | 432 kts | 299° |
| 2026-04-25 19:32 | 54.63438 | -0.41649 | 38300 ft | 431 kts | 298° |
| 2026-04-25 19:33 | 54.66858 | -0.52143 | 38302 ft | 431 kts | 298° |
| 2026-04-25 19:33 | 54.69790 | -0.61187 | 38304 ft | 431 kts | 298° |
| 2026-04-25 19:34 | 54.71255 | -0.65714 | 38191 ft | 433 kts | 298° |
| 2026-04-25 19:34 | 54.72723 | -0.70253 | 37923 ft | 431 kts | 298° |
| 2026-04-25 19:34 | 54.74185 | -0.74783 | 37649 ft | 431 kts | 298° |
| 2026-04-25 19:34 | 54.75649 | -0.79317 | 37400 ft | 432 kts | 298° |
| 2026-04-25 19:35 | 54.77118 | -0.83854 | 37144 ft | 431 kts | 298° |
| 2026-04-25 19:35 | 54.78585 | -0.88377 | 36884 ft | 430 kts | 298° |
| 2026-04-25 19:35 | 54.80049 | -0.92890 | 36636 ft | 429 kts | 298° |
| 2026-04-25 19:35 | 54.81506 | -0.97408 | 36377 ft | 429 kts | 298° |
| 2026-04-25 19:36 | 54.82959 | -1.01912 | 36126 ft | 428 kts | 298° |
| 2026-04-25 19:36 | 54.84405 | -1.06402 | 35830 ft | 423 kts | 298° |
| 2026-04-25 19:36 | 54.85843 | -1.10833 | 35284 ft | 422 kts | 298° |
| 2026-04-25 19:36 | 54.87293 | -1.15279 | 34629 ft | 424 kts | 298° |
| 2026-04-25 19:37 | 54.88750 | -1.19732 | 34035 ft | 424 kts | 298° |
| 2026-04-25 19:37 | 54.90199 | -1.24169 | 33518 ft | 420 kts | 298° |
| 2026-04-25 19:37 | 54.91631 | -1.28564 | 33091 ft | 416 kts | 298° |
| 2026-04-25 19:37 | 54.93050 | -1.32906 | 32646 ft | 411 kts | 298° |
| 2026-04-25 19:38 | 54.94459 | -1.37219 | 32172 ft | 409 kts | 298° |
| 2026-04-25 19:38 | 54.95860 | -1.41502 | 31700 ft | 406 kts | 298° |
| 2026-04-25 19:38 | 54.97254 | -1.45755 | 31248 ft | 403 kts | 298° |
| 2026-04-25 19:38 | 54.98644 | -1.49983 | 30799 ft | 401 kts | 298° |
| 2026-04-25 19:39 | 55.00006 | -1.54122 | 30368 ft | 399 kts | 298° |
| 2026-04-25 19:39 | 55.01387 | -1.58301 | 29857 ft | 396 kts | 298° |
| 2026-04-25 19:39 | 55.02756 | -1.62440 | 29403 ft | 393 kts | 298° |
| 2026-04-25 19:39 | 55.04113 | -1.66549 | 28988 ft | 389 kts | 298° |
| 2026-04-25 19:40 | 55.05454 | -1.70612 | 28566 ft | 385 kts | 298° |
| 2026-04-25 19:40 | 55.06782 | -1.74645 | 28156 ft | 381 kts | 298° |
| 2026-04-25 19:40 | 55.08096 | -1.78644 | 27756 ft | 378 kts | 298° |
| 2026-04-25 19:40 | 55.09397 | -1.82611 | 27362 ft | 375 kts | 298° |
| 2026-04-25 19:41 | 55.10683 | -1.86544 | 26975 ft | 371 kts | 298° |
| 2026-04-25 19:41 | 55.11957 | -1.90443 | 26614 ft | 368 kts | 298° |
| 2026-04-25 19:41 | 55.13165 | -1.94359 | 26257 ft | 363 kts | 291° |
| 2026-04-25 19:41 | 55.13478 | -1.95742 | 26106 ft | 362 kts | 288° |
| 2026-04-25 19:42 | 55.15100 | -2.02441 | 25510 ft | 358 kts | 295° |
| 2026-04-25 19:42 | 55.16232 | -2.06308 | 25129 ft | 356 kts | 296° |
| 2026-04-25 19:42 | 55.17408 | -2.10118 | 24728 ft | 355 kts | 297° |
| 2026-04-25 19:42 | 55.18603 | -2.13890 | 24329 ft | 354 kts | 297° |
| 2026-04-25 19:43 | 55.19807 | -2.17645 | 23928 ft | 354 kts | 298° |
| 2026-04-25 19:43 | 55.21019 | -2.21392 | 23474 ft | 353 kts | 298° |
| 2026-04-25 19:43 | 55.22229 | -2.25118 | 23051 ft | 351 kts | 298° |
| 2026-04-25 19:43 | 55.23430 | -2.28814 | 22658 ft | 348 kts | 298° |
| 2026-04-25 19:44 | 55.24622 | -2.32485 | 22280 ft | 345 kts | 298° |
| 2026-04-25 19:44 | 55.25804 | -2.36132 | 21895 ft | 343 kts | 298° |
| 2026-04-25 19:44 | 55.26978 | -2.39757 | 21506 ft | 341 kts | 298° |
| 2026-04-25 19:44 | 55.28144 | -2.43364 | 21123 ft | 339 kts | 298° |
| 2026-04-25 19:45 | 55.29301 | -2.46951 | 20752 ft | 337 kts | 298° |
| 2026-04-25 19:45 | 55.30453 | -2.50524 | 20364 ft | 335 kts | 298° |
| 2026-04-25 19:45 | 55.31598 | -2.54082 | 20008 ft | 334 kts | 298° |
| 2026-04-25 19:45 | 55.32736 | -2.57623 | 19637 ft | 332 kts | 298° |
| 2026-04-25 19:46 | 55.33869 | -2.61154 | 19270 ft | 331 kts | 298° |
| 2026-04-25 19:46 | 55.34997 | -2.64674 | 18913 ft | 330 kts | 298° |
| 2026-04-25 19:46 | 55.36118 | -2.68180 | 18549 ft | 329 kts | 298° |
| 2026-04-25 19:46 | 55.37238 | -2.71685 | 18122 ft | 328 kts | 298° |
| 2026-04-25 19:47 | 55.38350 | -2.75172 | 17734 ft | 326 kts | 298° |
| 2026-04-25 19:47 | 55.39454 | -2.78640 | 17374 ft | 324 kts | 297° |
| 2026-04-25 19:47 | 55.40550 | -2.82084 | 17024 ft | 321 kts | 297° |
| 2026-04-25 19:47 | 55.41638 | -2.85510 | 16668 ft | 319 kts | 297° |
| 2026-04-25 19:48 | 55.42717 | -2.88909 | 16301 ft | 317 kts | 297° |
| 2026-04-25 19:48 | 55.43792 | -2.92300 | 15945 ft | 316 kts | 297° |
| 2026-04-25 19:48 | 55.45077 | -2.95324 | 15905 ft | 305 kts | 320° |
| 2026-04-25 19:48 | 55.46956 | -2.96807 | 15855 ft | 295 kts | 350° |
| 2026-04-25 19:49 | 55.48991 | -2.97271 | 15825 ft | 300 kts | 346° |
| 2026-04-25 19:49 | 55.49652 | -2.97542 | 15779 ft | 303 kts | 342° |
| 2026-04-25 19:49 | 55.53067 | -2.99574 | 15712 ft | 314 kts | 337° |
| 2026-04-25 19:49 | 55.55079 | -3.00965 | 15660 ft | 314 kts | 336° |
| 2026-04-25 19:50 | 55.59109 | -3.03969 | 15570 ft | 314 kts | 335° |
| 2026-04-25 19:50 | 55.61115 | -3.05512 | 15527 ft | 314 kts | 334° |
| 2026-04-25 19:50 | 55.63113 | -3.07066 | 15485 ft | 314 kts | 334° |
| 2026-04-25 19:51 | 55.65109 | -3.08634 | 15441 ft | 314 kts | 334° |
| 2026-04-25 19:51 | 55.67100 | -3.10203 | 15392 ft | 311 kts | 334° |
| 2026-04-25 19:51 | 55.69058 | -3.11727 | 15223 ft | 304 kts | 337° |
| 2026-04-25 19:51 | 55.71117 | -3.12408 | 14953 ft | 303 kts | 1° |
| 2026-04-25 19:52 | 55.73180 | -3.11613 | 14774 ft | 309 kts | 18° |
| 2026-04-25 19:52 | 55.75211 | -3.10271 | 14675 ft | 316 kts | 19° |
| 2026-04-25 19:52 | 55.77284 | -3.08845 | 14164 ft | 323 kts | 19° |
| 2026-04-25 19:52 | 55.79369 | -3.07294 | 13607 ft | 328 kts | 29° |
| 2026-04-25 19:53 | 55.81125 | -3.04666 | 13032 ft | 334 kts | 52° |
| 2026-04-25 19:53 | 55.82189 | -3.01056 | 12470 ft | 330 kts | 75° |
| 2026-04-25 19:53 | 55.82387 | -2.97064 | 11949 ft | 323 kts | 98° |
| 2026-04-25 19:53 | 55.81709 | -2.93336 | 11428 ft | 315 kts | 123° |
| 2026-04-25 19:54 | 55.80292 | -2.90490 | 10924 ft | 305 kts | 148° |
| 2026-04-25 19:54 | 55.78404 | -2.88985 | 10430 ft | 294 kts | 173° |
| 2026-04-25 19:54 | 55.76417 | -2.89051 | 9927 ft | 283 kts | 198° |
| 2026-04-25 19:54 | 55.75789 | -2.89424 | 9750 ft | 281 kts | 207° |
| 2026-04-25 19:55 | 55.73599 | -2.93352 | 8879 ft | 274 kts | 250° |
| 2026-04-25 19:55 | 55.73271 | -2.96651 | 8400 ft | 273 kts | 268° |
| 2026-04-25 19:55 | 55.73246 | -3.00016 | 7928 ft | 273 kts | 270° |
| 2026-04-25 19:55 | 55.73231 | -3.03380 | 7452 ft | 272 kts | 270° |
| 2026-04-25 19:56 | 55.73258 | -3.06732 | 6981 ft | 271 kts | 276° |
| 2026-04-25 19:56 | 55.73510 | -3.10018 | 6511 ft | 267 kts | 279° |
| 2026-04-25 19:56 | 55.73802 | -3.13261 | 6015 ft | 264 kts | 279° |
| 2026-04-25 19:56 | 55.74094 | -3.16466 | 5523 ft | 262 kts | 279° |
| 2026-04-25 19:57 | 55.74383 | -3.19621 | 5152 ft | 256 kts | 279° |
| 2026-04-25 19:57 | 55.74684 | -3.22696 | 4774 ft | 249 kts | 279° |
| 2026-04-25 19:57 | 55.74985 | -3.25685 | 4409 ft | 243 kts | 279° |
| 2026-04-25 19:57 | 55.75282 | -3.28601 | 4080 ft | 236 kts | 279° |
| 2026-04-25 19:58 | 55.75553 | -3.31360 | 4037 ft | 215 kts | 279° |
| 2026-04-25 19:58 | 55.75803 | -3.33902 | 4074 ft | 207 kts | 279° |
| 2026-04-25 19:58 | 55.76052 | -3.36414 | 3981 ft | 207 kts | 279° |
| 2026-04-25 19:58 | 55.76307 | -3.38928 | 3730 ft | 207 kts | 279° |
| 2026-04-25 19:59 | 55.76570 | -3.41459 | 3386 ft | 209 kts | 279° |
| 2026-04-25 19:59 | 55.76831 | -3.44000 | 3071 ft | 208 kts | 279° |
| 2026-04-25 19:59 | 55.77077 | -3.46537 | 2973 ft | 209 kts | 279° |
| 2026-04-25 19:59 | 55.77323 | -3.49093 | 3026 ft | 209 kts | 279° |
| 2026-04-25 20:00 | 55.77556 | -3.51470 | 3022 ft | 181 kts | 279° |
| 2026-04-25 20:00 | 55.77628 | -3.52193 | 3023 ft | 171 kts | 279° |
| 2026-04-25 20:00 | 55.77953 | -3.55463 | 2938 ft | 160 kts | 279° |
| 2026-04-25 20:00 | 55.78148 | -3.57412 | 2969 ft | 160 kts | 279° |
| 2026-04-25 20:01 | 55.79310 | -3.60654 | 2939 ft | 159 kts | 315° |
| 2026-04-25 20:01 | 55.80091 | -3.62040 | 3051 ft | 159 kts | 315° |
| 2026-04-25 20:01 | 55.80876 | -3.63419 | 3079 ft | 158 kts | 315° |
| 2026-04-25 20:02 | 55.81658 | -3.64784 | 3046 ft | 157 kts | 316° |
| 2026-04-25 20:02 | 55.82498 | -3.66026 | 2979 ft | 158 kts | 330° |
| 2026-04-25 20:02 | 55.83524 | -3.66551 | 2878 ft | 154 kts | 9° |
| 2026-04-25 20:02 | 55.84485 | -3.65948 | 2942 ft | 145 kts | 29° |
| 2026-04-25 20:03 | 55.85353 | -3.64985 | 3324 ft | 152 kts | 44° |
| 2026-04-25 20:03 | 55.86056 | -3.63559 | 3267 ft | 155 kts | 56° |
| 2026-04-25 20:03 | 55.86637 | -3.61946 | 3145 ft | 155 kts | 60° |
| 2026-04-25 20:03 | 55.87189 | -3.60324 | 2961 ft | 152 kts | 61° |
| 2026-04-25 20:04 | 55.87728 | -3.58729 | 2778 ft | 149 kts | 61° |
| 2026-04-25 20:04 | 55.88257 | -3.57167 | 2589 ft | 146 kts | 61° |
| 2026-04-25 20:04 | 55.88773 | -3.55642 | 2423 ft | 144 kts | 62° |
| 2026-04-25 20:04 | 55.89287 | -3.54131 | 2219 ft | 141 kts | 63° |
| 2026-04-25 20:05 | 55.89791 | -3.52643 | 2033 ft | 139 kts | 63° |
| 2026-04-25 20:05 | 55.90287 | -3.51172 | 1831 ft | 138 kts | 62° |
| 2026-04-25 20:05 | 55.90784 | -3.49704 | 1642 ft | 138 kts | 61° |
| 2026-04-25 20:05 | 55.91279 | -3.48249 | 1452 ft | 137 kts | 62° |
| 2026-04-25 20:06 | 55.91765 | -3.46808 | 1271 ft | 135 kts | 61° |
| 2026-04-25 20:06 | 55.92247 | -3.45386 | 1062 ft | 134 kts | 60° |
| 2026-04-25 20:06 | 55.92731 | -3.43955 | 861 ft | 135 kts | 60° |
| 2026-04-25 20:06 | 55.93221 | -3.42508 | 694 ft | 134 kts | 59° |
| 2026-04-25 20:07 | 55.93699 | -3.41118 | 440 ft | 131 kts | 58° |
| 2026-04-25 20:07 | 55.94167 | -3.39745 | 266 ft | 129 kts | 59° |
| 2026-04-25 20:07 | 55.94635 | -3.38364 | 128 ft | 129 kts | 58° |
| 2026-04-25 20:07 | 55.95005 | -3.37240 | 108 ft | 73 kts | 59° |
| 2026-04-25 20:08 | 55.95211 | -3.36622 | 109 ft | 47 kts | 59° |
| 2026-04-25 20:08 | 55.95244 | -3.36406 | 103 ft | 13 kts | 137° |
| 2026-04-25 20:08 | 55.95210 | -3.36368 | 103 ft | 0 kts | 150° |
| 2026-04-25 20:11 | 55.95200 | -3.36357 | 104 ft | 5 kts | 150° |
| 2026-04-25 20:11 | 55.95149 | -3.36313 | 106 ft | 9 kts | 177° |
| 2026-04-25 20:11 | 55.95101 | -3.36375 | 108 ft | 8 kts | 231° |
| 2026-04-25 20:11 | 55.95065 | -3.36394 | 109 ft | 6 kts | 170° |
| 2026-04-25 20:12 | 55.95014 | -3.36339 | 109 ft | 12 kts | 147° |
| 2026-04-25 20:12 | 55.94981 | -3.36303 | 110 ft | 4 kts | 149° |
| 2026-04-25 20:12 | 55.94967 | -3.36288 | 110 ft | 0 kts | 149° |